createdAt,value
2022-10-25T00:01:56.302Z,28.07
2022-10-25T00:04:25.474Z,27.10
2022-10-25T00:06:57.033Z,28.50
2022-10-25T00:09:27.502Z,25.27
2022-10-25T00:11:56.425Z,26.87
2022-10-25T00:14:25.433Z,26.30
2022-10-25T00:16:54.264Z,24.13
2022-10-25T00:19:23.381Z,27.97
2022-10-25T00:21:52.188Z,26.00
2022-10-25T00:24:21.160Z,24.70
2022-10-25T00:26:51.550Z,30.90
2022-10-25T00:29:20.779Z,27.40
2022-10-25T00:31:49.797Z,24.23
2022-10-25T00:34:18.736Z,25.00
2022-10-25T00:36:47.714Z,25.87
2022-10-25T00:39:16.718Z,24.23
2022-10-25T00:41:45.666Z,25.77
2022-10-25T00:44:51.504Z,27.50
2022-10-25T00:47:42.405Z,26.47
2022-10-25T00:50:37.666Z,24.07
2022-10-25T00:53:10.987Z,28.00
2022-10-25T00:55:43.688Z,23.60
2022-10-25T00:58:15.566Z,23.53
2022-10-25T01:00:46.256Z,23.87
2022-10-25T01:03:18.268Z,22.77
2022-10-25T01:05:48.253Z,25.23
2022-10-25T01:08:17.997Z,28.93
2022-10-25T01:10:47.476Z,25.50
2022-10-25T01:13:16.685Z,25.50
2022-10-25T01:15:54.059Z,25.53
2022-10-25T01:18:30.466Z,23.40
2022-10-25T01:21:32.598Z,22.77
2022-10-25T01:24:31.478Z,21.67
2022-10-25T01:27:31.297Z,21.73
2022-10-25T01:30:14.494Z,27.27
2022-10-25T01:32:55.578Z,24.70
2022-10-25T01:35:30.045Z,21.30
2022-10-25T01:38:19.826Z,23.07
2022-10-25T01:40:58.877Z,20.10
2022-10-25T01:43:35.955Z,19.80
2022-10-25T01:46:13.898Z,18.83
2022-10-25T01:48:49.633Z,22.77
2022-10-25T01:51:20.244Z,21.23
2022-10-25T01:53:50.808Z,24.80
2022-10-25T01:56:27.693Z,22.17
2022-10-25T01:59:24.626Z,21.43
2022-10-25T02:02:03.241Z,19.80
2022-10-25T02:04:45.457Z,22.03
2022-10-25T02:07:22.337Z,24.17
2022-10-25T02:10:01.908Z,19.70
2022-10-25T02:12:39.100Z,22.27
2022-10-25T02:15:12.117Z,20.17
2022-10-25T02:17:48.166Z,21.27
2022-10-25T02:20:20.898Z,26.00
2022-10-25T02:22:54.350Z,20.23
2022-10-25T02:25:27.029Z,22.03
2022-10-25T02:27:57.913Z,24.83
2022-10-25T02:30:27.286Z,22.57
2022-10-25T02:32:57.903Z,18.93
2022-10-25T02:35:30.766Z,21.50
2022-10-25T02:38:00.704Z,28.33
2022-10-25T02:40:34.503Z,22.43
2022-10-25T02:43:04.335Z,21.03
2022-10-25T02:46:04.436Z,24.20
2022-10-25T02:48:34.568Z,32.20
2022-10-25T02:51:06.020Z,25.17
2022-10-25T02:53:35.870Z,18.27
2022-10-25T02:56:06.406Z,23.93
2022-10-25T02:58:38.457Z,18.97
2022-10-25T03:01:18.210Z,24.90
2022-10-25T03:03:48.385Z,33.00
2022-10-25T03:06:19.435Z,21.03
2022-10-25T03:08:49.155Z,18.43
2022-10-25T03:11:19.262Z,21.93
2022-10-25T03:13:49.203Z,16.87
2022-10-25T03:16:19.192Z,17.37
2022-10-25T03:18:48.482Z,17.70
2022-10-25T03:21:20.173Z,15.00
2022-10-25T03:23:50.416Z,15.70
2022-10-25T03:26:24.603Z,14.33
2022-10-25T03:28:56.288Z,13.57
2022-10-25T03:31:26.092Z,16.07
2022-10-25T03:33:55.392Z,14.97
2022-10-25T03:36:26.596Z,18.80
2022-10-25T03:38:56.743Z,22.47
2022-10-25T03:41:26.031Z,13.20
2022-10-25T03:43:55.364Z,11.33
2022-10-25T03:46:30.745Z,10.60
2022-10-25T03:49:00.624Z,13.70
2022-10-25T03:51:32.334Z,11.53
2022-10-25T03:54:01.716Z,13.57
2022-10-25T03:56:31.283Z,19.10
2022-10-25T03:59:03.939Z,12.37
2022-10-25T04:01:33.391Z,12.37
2022-10-25T04:04:04.153Z,15.30
2022-10-25T04:06:34.959Z,11.97
2022-10-25T04:09:05.803Z,13.87
2022-10-25T04:11:37.593Z,13.53
2022-10-25T04:14:07.472Z,13.63
2022-10-25T04:16:37.604Z,10.87
2022-10-25T04:19:06.740Z,14.20
2022-10-25T04:21:38.604Z,12.00
2022-10-25T04:24:09.216Z,14.17
2022-10-25T04:26:39.303Z,8.93
2022-10-25T04:29:09.350Z,9.73
2022-10-25T04:31:40.351Z,8.50
2022-10-25T04:34:09.790Z,9.00
2022-10-25T04:36:40.970Z,10.27
2022-10-25T04:39:10.329Z,9.90
2022-10-25T04:41:42.235Z,10.83
2022-10-25T04:44:14.561Z,9.87
2022-10-25T04:46:48.636Z,7.73
2022-10-25T04:49:20.043Z,6.80
2022-10-25T04:54:23.414Z,6.87
2022-10-25T04:56:56.017Z,9.10
2022-10-25T04:59:30.845Z,6.97
2022-10-25T05:02:00.344Z,8.67
2022-10-25T05:04:29.486Z,7.17
2022-10-25T05:07:00.166Z,7.27
2022-10-25T05:09:34.589Z,6.23
2022-10-25T05:12:04.493Z,8.00
2022-10-25T05:14:35.044Z,6.80
2022-10-25T05:17:04.348Z,6.73
2022-10-25T05:19:35.289Z,10.20
2022-10-25T05:22:10.055Z,6.67
2022-10-25T05:24:39.312Z,7.90
2022-10-25T05:27:08.926Z,10.87
2022-10-25T05:29:40.882Z,8.93
2022-10-25T05:32:10.541Z,8.13
2022-10-25T05:34:43.043Z,7.97
2022-10-25T05:37:13.766Z,8.17
2022-10-25T05:39:42.831Z,7.53
2022-10-25T05:42:13.338Z,9.00
2022-10-25T05:44:42.791Z,9.07
2022-10-25T05:47:12.845Z,8.33
2022-10-25T05:49:43.203Z,7.10
2022-10-25T05:52:15.938Z,10.00
2022-10-25T05:54:45.317Z,8.40
2022-10-25T05:57:14.468Z,8.50
2022-10-25T05:59:45.279Z,8.07
2022-10-25T06:02:14.722Z,8.57
2022-10-25T06:04:51.516Z,8.17
2022-10-25T06:07:25.366Z,7.73
2022-10-25T06:09:54.970Z,9.37
2022-10-25T06:12:24.643Z,12.17
2022-10-25T06:14:54.376Z,9.23
2022-10-25T06:17:24.005Z,8.33
2022-10-25T06:20:00.993Z,9.13
2022-10-25T06:22:31.918Z,8.43
2022-10-25T06:25:01.447Z,9.20
2022-10-25T06:27:30.644Z,7.70
2022-10-25T06:29:59.975Z,11.97
2022-10-25T06:32:30.576Z,16.50
2022-10-25T06:34:59.914Z,10.67
2022-10-25T06:37:28.837Z,6.73
2022-10-25T06:40:02.176Z,8.60
2022-10-25T06:42:32.075Z,9.80
2022-10-25T06:45:01.266Z,8.70
2022-10-25T06:47:30.277Z,9.37
2022-10-25T06:49:59.276Z,7.73
2022-10-25T06:52:32.360Z,11.50
2022-10-25T06:55:04.568Z,8.07
2022-10-25T06:57:33.675Z,10.40
2022-10-25T07:00:02.689Z,11.03
2022-10-25T07:02:35.549Z,10.83
2022-10-25T07:05:05.680Z,11.13
2022-10-25T07:07:35.596Z,12.73
2022-10-25T07:10:07.822Z,10.17
2022-10-25T07:12:39.553Z,12.37
2022-10-25T07:15:09.989Z,11.40
2022-10-25T07:17:39.001Z,11.37
2022-10-25T07:20:09.321Z,12.27
2022-10-25T07:22:38.388Z,14.00
2022-10-25T07:27:43.615Z,18.83
2022-10-25T07:30:13.612Z,18.10
2022-10-25T07:32:43.724Z,17.63
2022-10-25T07:35:13.418Z,18.53
2022-10-25T07:37:43.464Z,19.60
2022-10-25T07:40:15.420Z,19.30
2022-10-25T07:42:45.577Z,21.13
2022-10-25T07:45:18.670Z,17.57
2022-10-25T07:47:53.207Z,19.97
2022-10-25T07:50:26.795Z,18.07
2022-10-25T07:52:58.337Z,19.83
2022-10-25T07:55:29.499Z,17.90
2022-10-25T07:58:02.737Z,18.43
2022-10-25T08:00:36.187Z,19.17
2022-10-25T08:03:06.332Z,19.27
2022-10-25T08:05:39.177Z,17.93
2022-10-25T08:08:11.050Z,20.47
2022-10-25T08:10:43.493Z,20.17
2022-10-25T08:13:13.279Z,19.80
2022-10-25T08:15:43.344Z,19.03
2022-10-25T08:18:13.821Z,20.57
2022-10-25T08:21:01.283Z,20.10
2022-10-25T08:23:31.960Z,19.73
2022-10-25T08:26:03.333Z,19.43
2022-10-25T08:28:34.835Z,21.37
2022-10-25T08:31:04.755Z,19.40
2022-10-25T08:33:35.500Z,19.53
2022-10-25T08:36:06.533Z,20.67
2022-10-25T08:38:35.899Z,21.30
2022-10-25T08:41:20.474Z,20.43
2022-10-25T08:44:18.666Z,19.57
2022-10-25T08:46:59.533Z,21.23
2022-10-25T08:49:36.565Z,21.30
2022-10-25T08:52:17.789Z,22.50
2022-10-25T08:54:50.067Z,22.10
2022-10-25T08:57:25.299Z,20.93
2022-10-25T08:59:58.692Z,21.47
2022-10-25T09:02:37.980Z,20.50
2022-10-25T09:05:15.366Z,22.60
2022-10-25T09:08:05.593Z,20.53
2022-10-25T09:10:53.654Z,22.63
2022-10-25T09:13:39.799Z,22.10
2022-10-25T09:16:17.153Z,22.37
2022-10-25T09:18:50.887Z,22.83
2022-10-25T09:21:23.421Z,22.03
2022-10-25T09:24:00.664Z,21.87
2022-10-25T09:26:48.003Z,22.37
2022-10-25T09:29:26.122Z,21.47
2022-10-25T09:31:59.422Z,22.13
2022-10-25T09:34:36.644Z,23.10
2022-10-25T09:37:14.311Z,21.47
2022-10-25T09:39:48.167Z,21.50
2022-10-25T09:42:22.598Z,21.63
2022-10-25T09:45:02.042Z,22.73
2022-10-25T09:47:39.469Z,22.97
2022-10-25T09:50:17.588Z,21.97
2022-10-25T09:52:55.451Z,21.73
2022-10-25T09:55:34.969Z,22.67
2022-10-25T09:58:08.678Z,21.87
2022-10-25T10:00:42.584Z,21.63
2022-10-25T10:03:13.929Z,22.07
2022-10-25T10:05:48.457Z,22.17
2022-10-25T10:08:19.075Z,21.60
2022-10-25T10:10:53.235Z,21.80
2022-10-25T10:13:30.430Z,22.20
2022-10-25T10:16:04.396Z,22.27
2022-10-25T10:18:35.026Z,21.37
2022-10-25T10:21:17.933Z,22.17
2022-10-25T10:23:51.631Z,21.27
2022-10-25T10:26:28.671Z,22.47
2022-10-25T10:29:09.102Z,22.00
2022-10-25T10:31:45.051Z,22.43
2022-10-25T10:34:33.612Z,22.57
2022-10-25T10:37:18.102Z,22.07
2022-10-25T10:39:52.724Z,22.43
2022-10-25T10:42:24.499Z,21.53
2022-10-25T10:45:17.188Z,21.20
2022-10-25T10:47:58.468Z,22.00
2022-10-25T10:50:33.120Z,19.73
2022-10-25T10:53:04.065Z,20.80
2022-10-25T10:55:37.555Z,19.80
2022-10-25T10:58:15.210Z,19.00
2022-10-25T11:00:53.432Z,19.17
2022-10-25T11:03:58.799Z,19.93
2022-10-25T11:06:30.777Z,18.27
2022-10-25T11:09:18.214Z,18.67
2022-10-25T11:12:06.724Z,17.63
2022-10-25T11:14:36.543Z,18.20
2022-10-25T11:17:15.344Z,18.33
2022-10-25T11:19:57.588Z,19.30
2022-10-25T11:22:52.678Z,19.43
2022-10-25T11:25:35.567Z,18.33
2022-10-25T11:28:29.891Z,17.97
2022-10-25T11:31:09.514Z,18.17
2022-10-25T11:33:48.115Z,19.20
2022-10-25T11:36:38.960Z,18.23
2022-10-25T11:39:36.906Z,16.33
2022-10-25T11:45:19.960Z,16.37
2022-10-25T11:48:09.995Z,15.90
2022-10-25T11:50:49.715Z,15.53
2022-10-25T11:53:35.677Z,15.57
2022-10-25T11:56:13.688Z,15.40
2022-10-25T11:58:54.021Z,14.53
2022-10-25T12:01:39.774Z,12.33
2022-10-25T12:04:28.426Z,13.47
2022-10-25T12:07:07.837Z,12.97
2022-10-25T12:09:51.117Z,12.97
2022-10-25T12:12:24.159Z,12.87
2022-10-25T12:14:57.496Z,12.43
2022-10-25T12:17:32.064Z,13.33
2022-10-25T12:20:05.582Z,12.60
2022-10-25T12:22:41.205Z,13.50
2022-10-25T12:25:25.631Z,13.50
2022-10-25T12:28:07.143Z,13.63
2022-10-25T12:30:37.542Z,13.80
2022-10-25T12:33:24.783Z,13.73
2022-10-25T12:36:00.745Z,13.83
2022-10-25T12:38:39.111Z,13.43
2022-10-25T12:41:19.209Z,13.90
2022-10-25T12:44:06.293Z,14.43
2022-10-25T12:47:06.872Z,14.07
2022-10-25T12:50:10.605Z,14.37
2022-10-25T12:52:44.431Z,14.07
2022-10-25T12:55:42.719Z,14.50
2022-10-25T12:58:26.543Z,14.97
2022-10-25T13:01:12.564Z,15.77
2022-10-25T13:04:19.382Z,14.47
2022-10-25T13:06:50.373Z,14.77
2022-10-25T13:09:27.112Z,14.87
2022-10-25T13:12:06.121Z,14.10
2022-10-25T13:14:39.114Z,14.97
2022-10-25T13:17:44.504Z,15.13
2022-10-25T13:20:49.867Z,15.00
2022-10-25T13:23:59.965Z,15.33
2022-10-25T13:26:36.118Z,14.47
2022-10-25T13:29:26.708Z,14.97
2022-10-25T13:32:26.027Z,14.60
2022-10-25T13:34:59.419Z,14.10
2022-10-25T13:37:45.494Z,13.70
2022-10-25T13:40:34.787Z,13.93
2022-10-25T13:43:06.864Z,13.73
2022-10-25T13:45:43.618Z,13.77
2022-10-25T13:48:30.738Z,14.83
2022-10-25T13:51:03.153Z,14.23
2022-10-25T13:53:39.563Z,13.77
2022-10-25T13:56:12.195Z,14.13
2022-10-25T13:58:53.261Z,13.90
2022-10-25T14:01:56.763Z,14.10
2022-10-25T14:04:44.963Z,14.83
2022-10-25T14:08:03.460Z,13.07
2022-10-25T14:10:40.768Z,14.60
2022-10-25T14:13:24.351Z,14.43
2022-10-25T14:15:59.238Z,13.47
2022-10-25T14:18:35.861Z,13.70
2022-10-25T14:21:10.672Z,13.67
2022-10-25T14:23:42.762Z,14.10
2022-10-25T14:26:18.157Z,14.43
2022-10-25T14:28:47.980Z,14.73
2022-10-25T14:31:21.921Z,13.83
2022-10-25T14:33:56.650Z,14.63
2022-10-25T14:36:32.704Z,13.90
2022-10-25T14:39:03.171Z,14.30
2022-10-25T14:41:35.828Z,15.13
2022-10-25T14:44:21.808Z,14.23
2022-10-25T14:46:55.544Z,15.70
2022-10-25T14:49:26.877Z,15.47
2022-10-25T14:52:04.805Z,14.63
2022-10-25T14:54:36.560Z,16.20
2022-10-25T14:57:08.712Z,14.13
2022-10-25T14:59:45.505Z,15.60
2022-10-25T15:02:19.667Z,15.33
2022-10-25T15:04:53.346Z,15.03
2022-10-25T15:07:27.316Z,15.53
2022-10-25T15:09:58.862Z,14.30
2022-10-25T15:12:30.810Z,15.17
2022-10-25T15:15:24.325Z,14.77
2022-10-25T15:17:58.642Z,15.73
2022-10-25T15:20:38.026Z,14.33
2022-10-25T15:23:20.295Z,15.30
2022-10-25T15:25:54.034Z,13.73
2022-10-25T15:28:24.756Z,17.00
2022-10-25T15:31:07.807Z,15.07
2022-10-25T15:33:39.675Z,17.47
2022-10-25T15:36:23.775Z,16.53
2022-10-25T15:39:08.177Z,14.87
2022-10-25T15:41:41.432Z,17.77
2022-10-25T15:44:11.100Z,18.63
2022-10-25T15:46:42.850Z,19.30
2022-10-25T15:49:18.641Z,21.07
2022-10-25T15:51:49.715Z,19.30
2022-10-25T15:54:21.952Z,20.73
2022-10-25T15:56:54.523Z,19.87
2022-10-25T15:59:25.153Z,21.40
2022-10-25T16:01:56.667Z,19.70
2022-10-25T16:04:27.979Z,20.97
2022-10-25T16:06:57.489Z,20.03
2022-10-25T16:09:27.904Z,21.67
2022-10-25T16:11:57.826Z,20.63
2022-10-25T16:14:29.147Z,19.77
2022-10-25T16:17:01.048Z,23.13
2022-10-25T16:19:32.755Z,20.70
2022-10-25T16:22:02.626Z,19.77
2022-10-25T16:24:33.298Z,22.50
2022-10-25T16:27:03.598Z,21.53
2022-10-25T16:29:33.182Z,22.77
2022-10-25T16:32:06.989Z,21.33
2022-10-25T16:34:36.880Z,24.03
2022-10-25T16:37:11.373Z,21.43
2022-10-25T16:39:46.065Z,25.33
2022-10-25T16:42:32.153Z,20.97
2022-10-25T16:45:03.004Z,23.70
2022-10-25T16:47:37.983Z,22.67
2022-10-25T16:50:08.503Z,22.73
2022-10-25T16:52:38.162Z,23.80
2022-10-25T16:55:14.130Z,23.27
2022-10-25T16:57:45.015Z,27.53
2022-10-25T17:00:15.623Z,26.83
2022-10-25T17:02:45.045Z,23.40
2022-10-25T17:05:19.103Z,23.20
2022-10-25T17:07:51.935Z,21.93
2022-10-25T17:10:24.084Z,27.57
2022-10-25T17:13:00.303Z,25.50
2022-10-25T17:15:31.148Z,23.60
2022-10-25T17:18:00.810Z,23.20
2022-10-25T17:20:30.747Z,29.63
2022-10-25T17:23:04.103Z,24.57
2022-10-25T17:25:37.705Z,26.77
2022-10-25T17:28:10.062Z,33.53
2022-10-25T17:30:46.775Z,23.37
2022-10-25T17:33:18.903Z,26.30
2022-10-25T17:35:50.942Z,27.03
2022-10-25T17:38:23.151Z,26.67
2022-10-25T17:40:54.383Z,27.23
2022-10-25T17:43:23.983Z,30.17
2022-10-25T17:45:55.591Z,26.47
2022-10-25T17:48:25.622Z,30.50
2022-10-25T17:50:56.463Z,29.83
2022-10-25T17:53:25.975Z,23.17
2022-10-25T17:55:59.122Z,23.00
2022-10-25T17:58:28.273Z,25.87
2022-10-25T18:00:57.606Z,30.63
2022-10-25T18:03:29.283Z,26.83
2022-10-25T18:06:03.718Z,34.43
2022-10-25T18:08:33.169Z,24.50
2022-10-25T18:11:10.825Z,31.70
2022-10-25T18:13:41.514Z,27.73
2022-10-25T18:16:12.391Z,23.90
2022-10-25T18:18:42.686Z,30.67
2022-10-25T18:21:14.631Z,29.77
2022-10-25T18:23:45.062Z,24.03
2022-10-25T18:26:18.350Z,28.07
2022-10-25T18:28:48.655Z,23.97
2022-10-25T18:31:18.393Z,41.67
2022-10-25T18:33:49.714Z,31.27
2022-10-25T18:36:21.098Z,25.33
2022-10-25T18:38:52.205Z,25.20
2022-10-25T18:41:26.874Z,28.83
2022-10-25T18:43:56.896Z,25.30
2022-10-25T18:46:29.795Z,29.67
2022-10-25T18:49:01.315Z,30.33
2022-10-25T18:51:32.634Z,29.97
2022-10-25T18:54:04.375Z,35.33
2022-10-25T18:56:35.540Z,26.73
2022-10-25T18:59:08.903Z,28.00
2022-10-25T19:01:40.339Z,34.03
2022-10-25T19:04:12.424Z,25.53
2022-10-25T19:06:43.164Z,26.43
2022-10-25T19:09:15.206Z,29.93
2022-10-25T19:11:51.808Z,25.73
2022-10-25T19:14:27.401Z,29.50
2022-10-25T19:16:58.752Z,36.63
2022-10-25T19:19:29.060Z,34.37
2022-10-25T19:21:59.373Z,33.87
2022-10-25T19:24:31.057Z,44.17
2022-10-25T19:27:04.273Z,29.13
2022-10-25T19:29:42.953Z,26.73
2022-10-25T19:32:22.861Z,30.30
2022-10-25T19:34:56.511Z,34.43
2022-10-25T19:37:26.792Z,31.13
2022-10-25T19:39:58.937Z,30.70
2022-10-25T19:42:43.080Z,33.40
2022-10-25T19:45:14.292Z,26.60
2022-10-25T19:47:44.787Z,30.50
2022-10-25T19:50:15.703Z,27.07
2022-10-25T19:52:47.046Z,26.10
2022-10-25T19:55:19.007Z,24.10
2022-10-25T19:57:50.760Z,41.43
2022-10-25T20:00:22.843Z,25.20
2022-10-25T20:02:52.545Z,29.70
2022-10-25T20:05:23.651Z,48.07
2022-10-25T20:07:54.310Z,34.40
2022-10-25T20:10:23.799Z,26.57
2022-10-25T20:12:55.959Z,32.50
2022-10-25T20:15:27.164Z,30.60
2022-10-25T20:18:08.533Z,30.63
2022-10-25T20:20:38.293Z,33.17
2022-10-25T20:23:07.728Z,41.70
2022-10-25T20:25:37.237Z,29.90
2022-10-25T20:28:09.116Z,33.60
2022-10-25T20:30:42.209Z,26.20
2022-10-25T20:33:11.318Z,25.17
2022-10-25T20:35:41.934Z,24.03
2022-10-25T20:38:14.234Z,35.67
2022-10-25T20:40:44.765Z,27.03
2022-10-25T20:43:15.980Z,30.47
2022-10-25T20:45:50.669Z,29.73
2022-10-25T20:48:19.995Z,30.57
2022-10-25T20:51:02.976Z,34.13
2022-10-25T20:53:39.684Z,28.10
2022-10-25T20:56:09.744Z,23.53
2022-10-25T20:58:40.492Z,33.67
2022-10-25T21:01:09.642Z,22.80
2022-10-25T21:03:39.852Z,23.70
2022-10-25T21:06:11.045Z,25.53
2022-10-25T21:08:41.483Z,24.63
2022-10-25T21:11:13.426Z,24.23
2022-10-25T21:13:44.073Z,25.63
2022-10-25T21:16:14.901Z,26.70
2022-10-25T21:18:45.013Z,22.30
2022-10-25T21:21:20.914Z,21.67
2022-10-25T21:23:50.872Z,21.80
2022-10-25T21:26:20.242Z,20.67
2022-10-25T21:28:50.841Z,21.53
2022-10-25T21:31:19.984Z,27.77
2022-10-25T21:33:53.170Z,23.43
2022-10-25T21:36:25.907Z,24.97
2022-10-25T21:38:56.018Z,22.63
2022-10-25T21:41:27.295Z,22.93
2022-10-25T21:43:59.510Z,22.73
2022-10-25T21:46:31.256Z,21.20
2022-10-25T21:49:02.067Z,20.70
2022-10-25T21:51:32.067Z,23.50
2022-10-25T21:54:03.389Z,23.93
2022-10-25T21:56:33.371Z,24.43
2022-10-25T21:59:05.988Z,22.60
2022-10-25T22:01:36.792Z,23.37
2022-10-25T22:04:06.227Z,21.87
2022-10-25T22:06:36.387Z,21.10
2022-10-25T22:09:05.932Z,28.03
2022-10-25T22:11:37.258Z,26.00
2022-10-25T22:14:11.149Z,24.23
2022-10-25T22:16:40.848Z,23.73
2022-10-25T22:19:16.388Z,20.03
2022-10-25T22:21:46.538Z,28.10
2022-10-25T22:24:17.375Z,22.40
2022-10-25T22:26:48.585Z,20.97
2022-10-25T22:29:19.502Z,23.77
2022-10-25T22:31:50.331Z,21.40
2022-10-25T22:34:24.513Z,26.07
2022-10-25T22:36:53.706Z,22.00
2022-10-25T22:39:40.954Z,36.33
2022-10-25T22:42:15.499Z,26.90
2022-10-25T22:44:46.778Z,20.33
2022-10-25T22:47:18.330Z,31.43
2022-10-25T22:49:48.210Z,30.77
2022-10-25T22:52:20.938Z,30.93
2022-10-25T22:54:52.593Z,27.00
2022-10-25T22:57:23.158Z,31.40
2022-10-25T22:59:54.132Z,28.57
2022-10-25T23:02:23.980Z,30.10
2022-10-25T23:04:54.600Z,22.47
2022-10-25T23:07:25.047Z,37.17
2022-10-25T23:09:54.401Z,42.20
2022-10-25T23:12:24.032Z,43.17
2022-10-25T23:14:55.331Z,29.23
2022-10-25T23:17:25.075Z,28.07
2022-10-25T23:19:54.538Z,26.60
2022-10-25T23:22:24.087Z,30.73
2022-10-25T23:24:54.016Z,29.07
2022-10-25T23:27:23.475Z,23.90
2022-10-25T23:29:55.041Z,24.73
2022-10-25T23:32:25.616Z,27.43
2022-10-25T23:34:57.091Z,26.60
2022-10-25T23:37:27.038Z,21.67
2022-10-25T23:39:57.413Z,26.10
2022-10-25T23:42:26.848Z,30.63
2022-10-25T23:45:04.732Z,37.03
2022-10-25T23:47:35.395Z,28.00
2022-10-25T23:50:04.651Z,25.30
2022-10-25T23:52:34.200Z,27.27
2022-10-25T23:55:03.934Z,29.70
2022-10-25T23:57:36.003Z,20.47
